sensor_id;sensor_type;location;lat;lon;timestamp;temperature;humidity
15341;DHT22;7770;52.158;5.372;2022-12-11T00:00:39;1.10;99.90
15341;DHT22;7770;52.158;5.372;2022-12-11T00:03:25;1.10;99.90
15341;DHT22;7770;52.158;5.372;2022-12-11T00:06:13;1.10;99.90
15341;DHT22;7770;52.158;5.372;2022-12-11T00:09:00;1.10;99.90
15341;DHT22;7770;52.158;5.372;2022-12-11T00:11:46;1.10;99.90
15341;DHT22;7770;52.158;5.372;2022-12-11T00:14:33;1.10;99.90
15341;DHT22;7770;52.158;5.372;2022-12-11T00:17:19;1.00;99.90
15341;DHT22;7770;52.158;5.372;2022-12-11T00:20:06;1.00;99.90
15341;DHT22;7770;52.158;5.372;2022-12-11T00:22:52;1.10;99.90
15341;DHT22;7770;52.158;5.372;2022-12-11T00:25:42;1.10;99.90
15341;DHT22;7770;52.158;5.372;2022-12-11T00:28:30;1.10;99.90
15341;DHT22;7770;52.158;5.372;2022-12-11T00:31:17;1.10;99.90
15341;DHT22;7770;52.158;5.372;2022-12-11T00:34:04;1.10;99.90
15341;DHT22;7770;52.158;5.372;2022-12-11T00:36:50;1.10;99.90
15341;DHT22;7770;52.158;5.372;2022-12-11T00:39:36;1.20;99.90
15341;DHT22;7770;52.158;5.372;2022-12-11T00:42:24;1.30;99.90
15341;DHT22;7770;52.158;5.372;2022-12-11T00:45:10;1.20;99.90
15341;DHT22;7770;52.158;5.372;2022-12-11T00:47:56;1.20;99.90
15341;DHT22;7770;52.158;5.372;2022-12-11T00:50:42;1.20;99.90
15341;DHT22;7770;52.158;5.372;2022-12-11T00:53:28;1.20;99.90
15341;DHT22;7770;52.158;5.372;2022-12-11T00:56:19;1.20;99.90
15341;DHT22;7770;52.158;5.372;2022-12-11T00:59:06;1.20;99.90
15341;DHT22;7770;52.158;5.372;2022-12-11T01:01:52;1.20;99.90
15341;DHT22;7770;52.158;5.372;2022-12-11T01:04:38;1.20;99.90
15341;DHT22;7770;52.158;5.372;2022-12-11T01:07:24;1.30;99.90
15341;DHT22;7770;52.158;5.372;2022-12-11T01:10:12;1.30;99.90
15341;DHT22;7770;52.158;5.372;2022-12-11T01:13:10;1.20;99.90
15341;DHT22;7770;52.158;5.372;2022-12-11T01:15:56;1.20;99.90
15341;DHT22;7770;52.158;5.372;2022-12-11T01:18:42;1.30;99.90
15341;DHT22;7770;52.158;5.372;2022-12-11T01:21:29;1.30;99.90
15341;DHT22;7770;52.158;5.372;2022-12-11T01:24:15;1.30;99.90
15341;DHT22;7770;52.158;5.372;2022-12-11T01:27:01;1.40;99.90
15341;DHT22;7770;52.158;5.372;2022-12-11T01:29:47;1.30;99.90
15341;DHT22;7770;52.158;5.372;2022-12-11T01:32:34;1.30;99.90
15341;DHT22;7770;52.158;5.372;2022-12-11T01:35:21;1.30;99.90
15341;DHT22;7770;52.158;5.372;2022-12-11T01:38:08;1.30;99.90
15341;DHT22;7770;52.158;5.372;2022-12-11T01:40:54;1.30;99.90
15341;DHT22;7770;52.158;5.372;2022-12-11T01:46:59;1.30;99.90
15341;DHT22;7770;52.158;5.372;2022-12-11T01:49:45;1.30;99.90
15341;DHT22;7770;52.158;5.372;2022-12-11T01:52:31;1.30;99.90
15341;DHT22;7770;52.158;5.372;2022-12-11T01:55:18;1.30;99.90
15341;DHT22;7770;52.158;5.372;2022-12-11T01:58:05;1.30;99.90
15341;DHT22;7770;52.158;5.372;2022-12-11T02:00:53;1.30;99.90
15341;DHT22;7770;52.158;5.372;2022-12-11T02:03:40;1.30;99.90
15341;DHT22;7770;52.158;5.372;2022-12-11T02:06:31;1.30;99.90
15341;DHT22;7770;52.158;5.372;2022-12-11T02:09:27;1.30;99.90
15341;DHT22;7770;52.158;5.372;2022-12-11T02:12:30;1.30;99.90
15341;DHT22;7770;52.158;5.372;2022-12-11T02:15:40;1.30;99.90
15341;DHT22;7770;52.158;5.372;2022-12-11T02:18:39;1.40;99.90
15341;DHT22;7770;52.158;5.372;2022-12-11T02:21:42;1.40;99.90
15341;DHT22;7770;52.158;5.372;2022-12-11T02:28:15;1.40;99.90
15341;DHT22;7770;52.158;5.372;2022-12-11T02:31:52;1.40;99.90
15341;DHT22;7770;52.158;5.372;2022-12-11T02:37:11;1.50;99.90
15341;DHT22;7770;52.158;5.372;2022-12-11T02:40:03;1.50;99.90
15341;DHT22;7770;52.158;5.372;2022-12-11T02:42:55;1.50;99.90
15341;DHT22;7770;52.158;5.372;2022-12-11T02:45:44;1.50;99.90
15341;DHT22;7770;52.158;5.372;2022-12-11T02:48:31;1.50;99.90
15341;DHT22;7770;52.158;5.372;2022-12-11T02:51:25;1.60;99.90
15341;DHT22;7770;52.158;5.372;2022-12-11T02:54:20;1.60;99.90
15341;DHT22;7770;52.158;5.372;2022-12-11T02:57:12;1.60;99.90
15341;DHT22;7770;52.158;5.372;2022-12-11T03:00:00;1.60;99.90
15341;DHT22;7770;52.158;5.372;2022-12-11T03:02:46;1.60;99.90
15341;DHT22;7770;52.158;5.372;2022-12-11T03:05:32;1.60;99.90
15341;DHT22;7770;52.158;5.372;2022-12-11T03:08:18;1.60;99.90
15341;DHT22;7770;52.158;5.372;2022-12-11T03:11:08;1.60;99.90
15341;DHT22;7770;52.158;5.372;2022-12-11T03:13:55;1.70;99.90
15341;DHT22;7770;52.158;5.372;2022-12-11T03:16:51;1.70;99.90
15341;DHT22;7770;52.158;5.372;2022-12-11T03:19:49;1.70;99.90
15341;DHT22;7770;52.158;5.372;2022-12-11T03:28:58;1.80;99.90
15341;DHT22;7770;52.158;5.372;2022-12-11T03:31:55;1.80;99.90
15341;DHT22;7770;52.158;5.372;2022-12-11T03:34:53;1.80;99.90
15341;DHT22;7770;52.158;5.372;2022-12-11T03:37:43;1.80;99.90
15341;DHT22;7770;52.158;5.372;2022-12-11T03:40:31;1.80;99.90
15341;DHT22;7770;52.158;5.372;2022-12-11T03:43:21;1.80;99.90
15341;DHT22;7770;52.158;5.372;2022-12-11T03:46:08;1.70;99.90
15341;DHT22;7770;52.158;5.372;2022-12-11T03:49:01;1.70;99.90
15341;DHT22;7770;52.158;5.372;2022-12-11T03:51:51;1.80;99.90
15341;DHT22;7770;52.158;5.372;2022-12-11T03:54:40;1.80;99.90
15341;DHT22;7770;52.158;5.372;2022-12-11T03:57:36;1.80;99.90
15341;DHT22;7770;52.158;5.372;2022-12-11T04:00:23;1.80;99.90
15341;DHT22;7770;52.158;5.372;2022-12-11T04:03:09;1.90;99.90
15341;DHT22;7770;52.158;5.372;2022-12-11T04:05:58;1.80;99.90
15341;DHT22;7770;52.158;5.372;2022-12-11T04:08:44;1.80;99.90
15341;DHT22;7770;52.158;5.372;2022-12-11T04:11:30;1.80;99.90
15341;DHT22;7770;52.158;5.372;2022-12-11T04:14:19;1.80;99.90
15341;DHT22;7770;52.158;5.372;2022-12-11T04:17:23;1.80;99.90
15341;DHT22;7770;52.158;5.372;2022-12-11T04:20:28;1.80;99.90
15341;DHT22;7770;52.158;5.372;2022-12-11T04:23:32;1.80;99.90
15341;DHT22;7770;52.158;5.372;2022-12-11T04:26:37;1.80;99.90
15341;DHT22;7770;52.158;5.372;2022-12-11T04:29:23;1.80;99.90
15341;DHT22;7770;52.158;5.372;2022-12-11T04:32:09;1.70;99.90
15341;DHT22;7770;52.158;5.372;2022-12-11T04:34:55;1.70;99.90
15341;DHT22;7770;52.158;5.372;2022-12-11T04:37:41;1.70;99.90
15341;DHT22;7770;52.158;5.372;2022-12-11T04:40:27;1.70;99.90
15341;DHT22;7770;52.158;5.372;2022-12-11T04:43:13;1.70;99.90
15341;DHT22;7770;52.158;5.372;2022-12-11T04:46:05;1.70;99.90
15341;DHT22;7770;52.158;5.372;2022-12-11T04:48:51;1.70;99.90
15341;DHT22;7770;52.158;5.372;2022-12-11T04:51:37;1.70;99.90
15341;DHT22;7770;52.158;5.372;2022-12-11T04:54:23;1.70;99.90
15341;DHT22;7770;52.158;5.372;2022-12-11T04:57:09;1.80;99.90
15341;DHT22;7770;52.158;5.372;2022-12-11T04:59:55;1.70;99.90
15341;DHT22;7770;52.158;5.372;2022-12-11T05:02:41;1.80;99.90
15341;DHT22;7770;52.158;5.372;2022-12-11T05:05:28;1.70;99.90
15341;DHT22;7770;52.158;5.372;2022-12-11T05:08:14;1.60;99.90
15341;DHT22;7770;52.158;5.372;2022-12-11T05:11:02;1.70;99.90
15341;DHT22;7770;52.158;5.372;2022-12-11T05:13:50;1.60;99.90
15341;DHT22;7770;52.158;5.372;2022-12-11T05:16:36;1.60;99.90
15341;DHT22;7770;52.158;5.372;2022-12-11T05:19:23;1.60;99.90
15341;DHT22;7770;52.158;5.372;2022-12-11T05:22:09;1.60;99.90
15341;DHT22;7770;52.158;5.372;2022-12-11T05:24:55;1.60;99.90
15341;DHT22;7770;52.158;5.372;2022-12-11T05:27:41;1.60;99.90
15341;DHT22;7770;52.158;5.372;2022-12-11T05:30:27;1.60;99.90
15341;DHT22;7770;52.158;5.372;2022-12-11T05:33:13;1.60;99.90
15341;DHT22;7770;52.158;5.372;2022-12-11T05:35:59;1.60;99.90
15341;DHT22;7770;52.158;5.372;2022-12-11T05:38:46;1.60;99.90
15341;DHT22;7770;52.158;5.372;2022-12-11T05:41:32;1.60;99.90
15341;DHT22;7770;52.158;5.372;2022-12-11T05:44:18;1.60;99.90
15341;DHT22;7770;52.158;5.372;2022-12-11T05:47:04;1.60;99.90
15341;DHT22;7770;52.158;5.372;2022-12-11T05:49:50;1.60;99.90
15341;DHT22;7770;52.158;5.372;2022-12-11T05:52:36;1.50;99.90
15341;DHT22;7770;52.158;5.372;2022-12-11T05:55:22;1.50;99.90
15341;DHT22;7770;52.158;5.372;2022-12-11T05:58:08;1.50;99.90
15341;DHT22;7770;52.158;5.372;2022-12-11T06:00:54;1.50;99.90
15341;DHT22;7770;52.158;5.372;2022-12-11T06:03:40;1.40;99.90
15341;DHT22;7770;52.158;5.372;2022-12-11T06:06:27;1.40;99.90
15341;DHT22;7770;52.158;5.372;2022-12-11T06:09:14;1.40;99.90
15341;DHT22;7770;52.158;5.372;2022-12-11T06:12:01;1.40;99.90
15341;DHT22;7770;52.158;5.372;2022-12-11T06:14:47;1.40;99.90
15341;DHT22;7770;52.158;5.372;2022-12-11T06:17:33;1.40;99.90
15341;DHT22;7770;52.158;5.372;2022-12-11T06:20:19;1.40;99.90
15341;DHT22;7770;52.158;5.372;2022-12-11T06:23:05;1.40;99.90
15341;DHT22;7770;52.158;5.372;2022-12-11T06:25:51;1.40;99.90
15341;DHT22;7770;52.158;5.372;2022-12-11T06:28:38;1.40;99.90
15341;DHT22;7770;52.158;5.372;2022-12-11T06:31:24;1.40;99.90
15341;DHT22;7770;52.158;5.372;2022-12-11T06:34:11;1.40;99.90
15341;DHT22;7770;52.158;5.372;2022-12-11T06:36:58;1.40;99.90
15341;DHT22;7770;52.158;5.372;2022-12-11T06:39:44;1.40;99.90
15341;DHT22;7770;52.158;5.372;2022-12-11T06:42:30;1.40;99.90
15341;DHT22;7770;52.158;5.372;2022-12-11T06:45:16;1.30;99.90
15341;DHT22;7770;52.158;5.372;2022-12-11T06:48:03;1.30;99.90
15341;DHT22;7770;52.158;5.372;2022-12-11T06:50:49;1.30;99.90
15341;DHT22;7770;52.158;5.372;2022-12-11T06:53:35;1.30;99.90
15341;DHT22;7770;52.158;5.372;2022-12-11T06:56:22;1.30;99.90
15341;DHT22;7770;52.158;5.372;2022-12-11T06:59:12;1.30;99.90
15341;DHT22;7770;52.158;5.372;2022-12-11T07:01:58;1.20;99.90
15341;DHT22;7770;52.158;5.372;2022-12-11T07:04:44;1.20;99.90
15341;DHT22;7770;52.158;5.372;2022-12-11T07:07:30;1.20;99.90
15341;DHT22;7770;52.158;5.372;2022-12-11T07:10:16;1.20;99.90
15341;DHT22;7770;52.158;5.372;2022-12-11T07:13:02;1.30;99.90
15341;DHT22;7770;52.158;5.372;2022-12-11T07:15:48;1.30;99.90
15341;DHT22;7770;52.158;5.372;2022-12-11T07:18:34;1.30;99.90
15341;DHT22;7770;52.158;5.372;2022-12-11T07:21:21;1.30;99.90
15341;DHT22;7770;52.158;5.372;2022-12-11T07:24:07;1.30;99.90
15341;DHT22;7770;52.158;5.372;2022-12-11T07:26:53;1.30;99.90
15341;DHT22;7770;52.158;5.372;2022-12-11T07:29:39;1.30;99.90
15341;DHT22;7770;52.158;5.372;2022-12-11T07:32:25;1.30;99.90
15341;DHT22;7770;52.158;5.372;2022-12-11T07:35:11;1.20;99.90
15341;DHT22;7770;52.158;5.372;2022-12-11T07:37:57;1.30;99.90
15341;DHT22;7770;52.158;5.372;2022-12-11T07:40:44;1.30;99.90
15341;DHT22;7770;52.158;5.372;2022-12-11T07:43:31;1.30;99.90
15341;DHT22;7770;52.158;5.372;2022-12-11T07:46:20;1.20;99.90
15341;DHT22;7770;52.158;5.372;2022-12-11T07:49:07;1.30;99.90
15341;DHT22;7770;52.158;5.372;2022-12-11T07:51:53;1.20;99.90
15341;DHT22;7770;52.158;5.372;2022-12-11T07:54:39;1.30;99.90
15341;DHT22;7770;52.158;5.372;2022-12-11T07:57:26;1.20;99.90
15341;DHT22;7770;52.158;5.372;2022-12-11T08:00:13;1.30;99.90
15341;DHT22;7770;52.158;5.372;2022-12-11T08:02:59;1.30;99.90
15341;DHT22;7770;52.158;5.372;2022-12-11T08:05:47;1.20;99.90
15341;DHT22;7770;52.158;5.372;2022-12-11T08:08:34;1.30;99.90
15341;DHT22;7770;52.158;5.372;2022-12-11T08:11:20;1.20;99.90
15341;DHT22;7770;52.158;5.372;2022-12-11T08:14:06;1.20;99.90
15341;DHT22;7770;52.158;5.372;2022-12-11T08:16:54;1.20;99.90
15341;DHT22;7770;52.158;5.372;2022-12-11T08:19:40;1.20;99.90
15341;DHT22;7770;52.158;5.372;2022-12-11T08:22:26;1.30;99.90
15341;DHT22;7770;52.158;5.372;2022-12-11T08:25:12;1.30;99.90
15341;DHT22;7770;52.158;5.372;2022-12-11T08:27:58;1.30;99.90
15341;DHT22;7770;52.158;5.372;2022-12-11T08:30:44;1.30;99.90
15341;DHT22;7770;52.158;5.372;2022-12-11T08:33:30;1.20;99.90
15341;DHT22;7770;52.158;5.372;2022-12-11T08:36:19;1.20;99.90
15341;DHT22;7770;52.158;5.372;2022-12-11T08:39:05;1.20;99.90
15341;DHT22;7770;52.158;5.372;2022-12-11T08:41:51;1.30;99.90
15341;DHT22;7770;52.158;5.372;2022-12-11T08:44:37;1.20;99.90
15341;DHT22;7770;52.158;5.372;2022-12-11T08:47:23;1.30;99.90
15341;DHT22;7770;52.158;5.372;2022-12-11T08:50:09;1.20;99.90
15341;DHT22;7770;52.158;5.372;2022-12-11T08:52:56;1.30;99.90
15341;DHT22;7770;52.158;5.372;2022-12-11T08:55:42;1.30;99.90
15341;DHT22;7770;52.158;5.372;2022-12-11T08:58:28;1.30;99.90
15341;DHT22;7770;52.158;5.372;2022-12-11T09:01:18;1.30;99.90
15341;DHT22;7770;52.158;5.372;2022-12-11T09:04:08;1.30;99.90
15341;DHT22;7770;52.158;5.372;2022-12-11T09:06:54;1.30;99.90
15341;DHT22;7770;52.158;5.372;2022-12-11T09:09:40;1.30;99.90
15341;DHT22;7770;52.158;5.372;2022-12-11T09:12:27;1.40;99.90
15341;DHT22;7770;52.158;5.372;2022-12-11T09:15:13;1.40;99.90
15341;DHT22;7770;52.158;5.372;2022-12-11T09:17:59;1.40;99.90
15341;DHT22;7770;52.158;5.372;2022-12-11T09:20:45;1.30;99.90
15341;DHT22;7770;52.158;5.372;2022-12-11T09:23:31;1.30;99.90
15341;DHT22;7770;52.158;5.372;2022-12-11T09:26:18;1.40;99.90
15341;DHT22;7770;52.158;5.372;2022-12-11T09:29:05;1.40;99.90
15341;DHT22;7770;52.158;5.372;2022-12-11T09:31:51;1.50;99.90
15341;DHT22;7770;52.158;5.372;2022-12-11T09:34:37;1.60;99.90
15341;DHT22;7770;52.158;5.372;2022-12-11T09:37:23;1.70;99.90
15341;DHT22;7770;52.158;5.372;2022-12-11T09:40:10;1.80;99.90
15341;DHT22;7770;52.158;5.372;2022-12-11T09:42:59;1.80;99.90
15341;DHT22;7770;52.158;5.372;2022-12-11T09:45:50;1.80;99.90
15341;DHT22;7770;52.158;5.372;2022-12-11T09:48:37;1.80;99.90
15341;DHT22;7770;52.158;5.372;2022-12-11T09:51:38;1.80;99.90
15341;DHT22;7770;52.158;5.372;2022-12-11T09:54:27;1.80;99.90
15341;DHT22;7770;52.158;5.372;2022-12-11T10:00:21;1.60;99.90
15341;DHT22;7770;52.158;5.372;2022-12-11T10:06:32;1.70;99.90
15341;DHT22;7770;52.158;5.372;2022-12-11T10:18:37;1.70;99.90
15341;DHT22;7770;52.158;5.372;2022-12-11T10:21:24;1.80;99.90
15341;DHT22;7770;52.158;5.372;2022-12-11T10:24:19;1.90;99.90
15341;DHT22;7770;52.158;5.372;2022-12-11T10:27:20;1.90;99.90
15341;DHT22;7770;52.158;5.372;2022-12-11T10:30:18;1.90;99.90
15341;DHT22;7770;52.158;5.372;2022-12-11T10:36:27;1.90;99.90
15341;DHT22;7770;52.158;5.372;2022-12-11T10:39:19;2.00;99.90
15341;DHT22;7770;52.158;5.372;2022-12-11T10:42:18;1.90;99.90
15341;DHT22;7770;52.158;5.372;2022-12-11T10:45:05;2.00;99.90
15341;DHT22;7770;52.158;5.372;2022-12-11T10:48:04;2.00;99.90
15341;DHT22;7770;52.158;5.372;2022-12-11T10:50:58;2.00;99.90
15341;DHT22;7770;52.158;5.372;2022-12-11T10:53:50;2.00;99.90
15341;DHT22;7770;52.158;5.372;2022-12-11T10:56:38;2.10;99.90
15341;DHT22;7770;52.158;5.372;2022-12-11T11:02:26;2.00;99.90
15341;DHT22;7770;52.158;5.372;2022-12-11T11:05:24;2.00;99.90
15341;DHT22;7770;52.158;5.372;2022-12-11T11:08:20;2.00;99.90
15341;DHT22;7770;52.158;5.372;2022-12-11T11:14:20;2.00;99.90
15341;DHT22;7770;52.158;5.372;2022-12-11T11:17:14;2.00;99.90
15341;DHT22;7770;52.158;5.372;2022-12-11T11:20:05;2.10;99.90
15341;DHT22;7770;52.158;5.372;2022-12-11T11:23:00;2.10;99.90
15341;DHT22;7770;52.158;5.372;2022-12-11T11:25:54;2.10;99.90
15341;DHT22;7770;52.158;5.372;2022-12-11T11:28:47;2.10;99.90
15341;DHT22;7770;52.158;5.372;2022-12-11T11:31:35;2.10;99.90
15341;DHT22;7770;52.158;5.372;2022-12-11T11:34:21;2.10;99.90
15341;DHT22;7770;52.158;5.372;2022-12-11T11:37:32;2.10;99.90
15341;DHT22;7770;52.158;5.372;2022-12-11T11:40:26;2.20;99.90
15341;DHT22;7770;52.158;5.372;2022-12-11T11:46:24;2.30;99.90
15341;DHT22;7770;52.158;5.372;2022-12-11T11:49:40;2.50;99.90
15341;DHT22;7770;52.158;5.372;2022-12-11T11:52:50;2.60;99.90
15341;DHT22;7770;52.158;5.372;2022-12-11T11:59:13;2.70;99.90
15341;DHT22;7770;52.158;5.372;2022-12-11T12:02:13;2.50;99.90
15341;DHT22;7770;52.158;5.372;2022-12-11T12:05:02;2.40;99.90
15341;DHT22;7770;52.158;5.372;2022-12-11T12:11:12;2.40;99.90
15341;DHT22;7770;52.158;5.372;2022-12-11T12:21:36;2.70;99.90
15341;DHT22;7770;52.158;5.372;2022-12-11T12:27:50;2.60;99.90
15341;DHT22;7770;52.158;5.372;2022-12-11T12:38:35;2.80;99.90
15341;DHT22;7770;52.158;5.372;2022-12-11T12:41:41;2.80;99.90
15341;DHT22;7770;52.158;5.372;2022-12-11T12:47:59;2.70;99.90
15341;DHT22;7770;52.158;5.372;2022-12-11T12:50:47;2.70;99.90
15341;DHT22;7770;52.158;5.372;2022-12-11T12:53:35;2.80;99.90
15341;DHT22;7770;52.158;5.372;2022-12-11T12:56:22;2.80;99.90
15341;DHT22;7770;52.158;5.372;2022-12-11T12:59:24;2.80;99.90
15341;DHT22;7770;52.158;5.372;2022-12-11T13:02:12;2.80;99.90
15341;DHT22;7770;52.158;5.372;2022-12-11T13:05:28;2.90;99.90
15341;DHT22;7770;52.158;5.372;2022-12-11T13:08:24;2.80;99.90
15341;DHT22;7770;52.158;5.372;2022-12-11T13:11:12;2.90;99.90
15341;DHT22;7770;52.158;5.372;2022-12-11T13:14:07;2.80;99.90
15341;DHT22;7770;52.158;5.372;2022-12-11T13:20:18;2.70;99.90
15341;DHT22;7770;52.158;5.372;2022-12-11T13:25:57;2.60;99.90
15341;DHT22;7770;52.158;5.372;2022-12-11T13:28:47;2.60;99.90
15341;DHT22;7770;52.158;5.372;2022-12-11T13:31:37;2.60;99.90
15341;DHT22;7770;52.158;5.372;2022-12-11T13:34:27;2.60;99.90
15341;DHT22;7770;52.158;5.372;2022-12-11T13:40:31;2.50;99.90
15341;DHT22;7770;52.158;5.372;2022-12-11T13:43:27;2.50;99.90
15341;DHT22;7770;52.158;5.372;2022-12-11T13:46:20;2.60;99.90
15341;DHT22;7770;52.158;5.372;2022-12-11T13:49:22;2.50;99.90
15341;DHT22;7770;52.158;5.372;2022-12-11T13:52:24;2.60;99.90
15341;DHT22;7770;52.158;5.372;2022-12-11T13:55:20;2.60;99.90
15341;DHT22;7770;52.158;5.372;2022-12-11T13:58:17;2.60;99.90
15341;DHT22;7770;52.158;5.372;2022-12-11T14:01:20;2.60;99.90
15341;DHT22;7770;52.158;5.372;2022-12-11T14:04:11;2.70;99.90
15341;DHT22;7770;52.158;5.372;2022-12-11T14:07:01;2.70;99.90
15341;DHT22;7770;52.158;5.372;2022-12-11T14:09:54;2.60;99.90
15341;DHT22;7770;52.158;5.372;2022-12-11T14:15:44;2.60;99.90
15341;DHT22;7770;52.158;5.372;2022-12-11T14:18:32;2.50;99.90
15341;DHT22;7770;52.158;5.372;2022-12-11T14:21:22;2.40;99.90
15341;DHT22;7770;52.158;5.372;2022-12-11T14:24:11;2.40;99.90
15341;DHT22;7770;52.158;5.372;2022-12-11T14:26:58;2.30;99.90
15341;DHT22;7770;52.158;5.372;2022-12-11T14:29:45;2.40;99.90
15341;DHT22;7770;52.158;5.372;2022-12-11T14:32:35;2.30;99.90
15341;DHT22;7770;52.158;5.372;2022-12-11T14:35:31;2.20;99.90
15341;DHT22;7770;52.158;5.372;2022-12-11T14:38:36;2.20;99.90
15341;DHT22;7770;52.158;5.372;2022-12-11T14:41:34;2.20;99.90
15341;DHT22;7770;52.158;5.372;2022-12-11T14:44:31;2.20;99.90
15341;DHT22;7770;52.158;5.372;2022-12-11T14:47:36;2.20;99.90
15341;DHT22;7770;52.158;5.372;2022-12-11T14:50:38;2.20;99.90
15341;DHT22;7770;52.158;5.372;2022-12-11T14:53:35;2.30;99.90
15341;DHT22;7770;52.158;5.372;2022-12-11T14:56:27;2.30;99.90
15341;DHT22;7770;52.158;5.372;2022-12-11T14:59:20;2.20;99.90
15341;DHT22;7770;52.158;5.372;2022-12-11T15:05:16;2.10;99.90
15341;DHT22;7770;52.158;5.372;2022-12-11T15:13:56;2.10;99.90
15341;DHT22;7770;52.158;5.372;2022-12-11T15:16:44;2.10;99.90
15341;DHT22;7770;52.158;5.372;2022-12-11T15:19:33;2.10;99.90
15341;DHT22;7770;52.158;5.372;2022-12-11T15:22:21;2.10;99.90
15341;DHT22;7770;52.158;5.372;2022-12-11T15:25:28;2.10;99.90
15341;DHT22;7770;52.158;5.372;2022-12-11T15:31:26;2.10;99.90
15341;DHT22;7770;52.158;5.372;2022-12-11T15:34:21;2.10;99.90
15341;DHT22;7770;52.158;5.372;2022-12-11T15:40:17;2.10;99.90
15341;DHT22;7770;52.158;5.372;2022-12-11T15:43:03;2.00;99.90
15341;DHT22;7770;52.158;5.372;2022-12-11T15:45:49;2.00;99.90
15341;DHT22;7770;52.158;5.372;2022-12-11T15:48:35;2.00;99.90
15341;DHT22;7770;52.158;5.372;2022-12-11T15:51:21;2.00;99.90
15341;DHT22;7770;52.158;5.372;2022-12-11T15:54:08;2.10;99.90
15341;DHT22;7770;52.158;5.372;2022-12-11T15:56:54;2.00;99.90
15341;DHT22;7770;52.158;5.372;2022-12-11T15:59:40;2.10;99.90
15341;DHT22;7770;52.158;5.372;2022-12-11T16:02:26;2.10;99.90
15341;DHT22;7770;52.158;5.372;2022-12-11T16:05:13;2.00;99.90
15341;DHT22;7770;52.158;5.372;2022-12-11T16:07:59;2.10;99.90
15341;DHT22;7770;52.158;5.372;2022-12-11T16:10:46;2.10;99.90
15341;DHT22;7770;52.158;5.372;2022-12-11T16:13:32;2.10;99.90
15341;DHT22;7770;52.158;5.372;2022-12-11T16:16:18;2.00;99.90
15341;DHT22;7770;52.158;5.372;2022-12-11T16:19:04;1.90;99.90
15341;DHT22;7770;52.158;5.372;2022-12-11T16:21:51;2.00;99.90
15341;DHT22;7770;52.158;5.372;2022-12-11T16:24:37;1.90;99.90
15341;DHT22;7770;52.158;5.372;2022-12-11T16:27:24;2.00;99.90
15341;DHT22;7770;52.158;5.372;2022-12-11T16:30:11;2.00;99.90
15341;DHT22;7770;52.158;5.372;2022-12-11T16:32:57;1.90;99.90
15341;DHT22;7770;52.158;5.372;2022-12-11T16:35:44;1.80;99.90
15341;DHT22;7770;52.158;5.372;2022-12-11T16:38:29;1.90;99.90
15341;DHT22;7770;52.158;5.372;2022-12-11T16:41:15;1.90;99.90
15341;DHT22;7770;52.158;5.372;2022-12-11T16:44:02;1.90;99.90
15341;DHT22;7770;52.158;5.372;2022-12-11T16:46:48;2.00;99.90
15341;DHT22;7770;52.158;5.372;2022-12-11T16:49:35;2.00;99.90
15341;DHT22;7770;52.158;5.372;2022-12-11T16:52:21;2.10;99.90
15341;DHT22;7770;52.158;5.372;2022-12-11T16:55:08;2.00;99.90
15341;DHT22;7770;52.158;5.372;2022-12-11T16:57:55;2.10;99.90
15341;DHT22;7770;52.158;5.372;2022-12-11T17:00:41;2.20;99.90
15341;DHT22;7770;52.158;5.372;2022-12-11T17:03:29;2.10;99.90
15341;DHT22;7770;52.158;5.372;2022-12-11T17:06:16;2.10;99.90
15341;DHT22;7770;52.158;5.372;2022-12-11T17:09:03;2.00;99.90
15341;DHT22;7770;52.158;5.372;2022-12-11T17:11:49;2.00;99.90
15341;DHT22;7770;52.158;5.372;2022-12-11T17:14:35;2.10;99.90
15341;DHT22;7770;52.158;5.372;2022-12-11T17:17:21;2.10;99.90
15341;DHT22;7770;52.158;5.372;2022-12-11T17:20:08;2.10;99.90
15341;DHT22;7770;52.158;5.372;2022-12-11T17:22:55;2.20;99.90
15341;DHT22;7770;52.158;5.372;2022-12-11T17:25:42;2.30;99.90
15341;DHT22;7770;52.158;5.372;2022-12-11T17:28:30;2.30;99.90
15341;DHT22;7770;52.158;5.372;2022-12-11T17:31:17;2.30;99.90
15341;DHT22;7770;52.158;5.372;2022-12-11T17:34:04;2.30;99.90
15341;DHT22;7770;52.158;5.372;2022-12-11T17:36:50;2.30;99.90
15341;DHT22;7770;52.158;5.372;2022-12-11T17:39:36;2.20;99.90
15341;DHT22;7770;52.158;5.372;2022-12-11T17:42:22;2.20;99.90
15341;DHT22;7770;52.158;5.372;2022-12-11T17:45:09;2.20;99.90
15341;DHT22;7770;52.158;5.372;2022-12-11T17:47:55;2.10;99.90
15341;DHT22;7770;52.158;5.372;2022-12-11T17:50:42;2.10;99.90
15341;DHT22;7770;52.158;5.372;2022-12-11T17:53:30;2.00;99.90
15341;DHT22;7770;52.158;5.372;2022-12-11T17:56:16;2.00;99.90
15341;DHT22;7770;52.158;5.372;2022-12-11T17:59:03;2.00;99.90
15341;DHT22;7770;52.158;5.372;2022-12-11T18:01:49;2.00;99.90
15341;DHT22;7770;52.158;5.372;2022-12-11T18:04:37;2.10;99.90
15341;DHT22;7770;52.158;5.372;2022-12-11T18:07:23;2.10;99.90
15341;DHT22;7770;52.158;5.372;2022-12-11T18:10:09;2.10;99.90
15341;DHT22;7770;52.158;5.372;2022-12-11T18:12:55;2.00;99.90
15341;DHT22;7770;52.158;5.372;2022-12-11T18:15:41;1.90;99.90
15341;DHT22;7770;52.158;5.372;2022-12-11T18:18:28;1.90;99.90
15341;DHT22;7770;52.158;5.372;2022-12-11T18:21:17;1.90;99.90
15341;DHT22;7770;52.158;5.372;2022-12-11T18:24:05;1.90;99.90
15341;DHT22;7770;52.158;5.372;2022-12-11T18:26:51;1.90;99.90
15341;DHT22;7770;52.158;5.372;2022-12-11T18:29:37;1.80;99.90
15341;DHT22;7770;52.158;5.372;2022-12-11T18:32:23;1.80;99.90
15341;DHT22;7770;52.158;5.372;2022-12-11T18:35:10;1.80;99.90
15341;DHT22;7770;52.158;5.372;2022-12-11T18:37:56;1.80;99.90
15341;DHT22;7770;52.158;5.372;2022-12-11T18:40:42;1.90;99.90
15341;DHT22;7770;52.158;5.372;2022-12-11T18:43:28;1.90;99.90
15341;DHT22;7770;52.158;5.372;2022-12-11T18:46:17;1.90;99.90
15341;DHT22;7770;52.158;5.372;2022-12-11T18:49:05;1.90;99.90
15341;DHT22;7770;52.158;5.372;2022-12-11T18:51:51;1.90;99.90
15341;DHT22;7770;52.158;5.372;2022-12-11T18:54:37;1.80;99.90
15341;DHT22;7770;52.158;5.372;2022-12-11T18:57:23;1.80;99.90
15341;DHT22;7770;52.158;5.372;2022-12-11T19:00:10;1.80;99.90
15341;DHT22;7770;52.158;5.372;2022-12-11T19:02:56;1.80;99.90
15341;DHT22;7770;52.158;5.372;2022-12-11T19:05:42;1.80;99.90
15341;DHT22;7770;52.158;5.372;2022-12-11T19:08:28;1.70;99.90
15341;DHT22;7770;52.158;5.372;2022-12-11T19:11:19;1.80;99.90
15341;DHT22;7770;52.158;5.372;2022-12-11T19:14:07;1.80;99.90
15341;DHT22;7770;52.158;5.372;2022-12-11T19:16:53;1.80;99.90
15341;DHT22;7770;52.158;5.372;2022-12-11T19:19:40;1.70;99.90
15341;DHT22;7770;52.158;5.372;2022-12-11T19:22:27;1.70;99.90
15341;DHT22;7770;52.158;5.372;2022-12-11T19:25:13;1.60;99.90
15341;DHT22;7770;52.158;5.372;2022-12-11T19:28:00;1.60;99.90
15341;DHT22;7770;52.158;5.372;2022-12-11T19:30:47;1.50;99.90
15341;DHT22;7770;52.158;5.372;2022-12-11T19:33:34;1.50;99.90
15341;DHT22;7770;52.158;5.372;2022-12-11T19:36:22;1.50;99.90
15341;DHT22;7770;52.158;5.372;2022-12-11T19:39:09;1.50;99.90
15341;DHT22;7770;52.158;5.372;2022-12-11T19:41:55;1.50;99.90
15341;DHT22;7770;52.158;5.372;2022-12-11T19:44:41;1.50;99.90
15341;DHT22;7770;52.158;5.372;2022-12-11T19:47:27;1.50;99.90
15341;DHT22;7770;52.158;5.372;2022-12-11T19:50:13;1.50;99.90
15341;DHT22;7770;52.158;5.372;2022-12-11T19:52:59;1.60;99.90
15341;DHT22;7770;52.158;5.372;2022-12-11T19:55:52;1.60;99.90
15341;DHT22;7770;52.158;5.372;2022-12-11T19:58:38;1.60;99.90
15341;DHT22;7770;52.158;5.372;2022-12-11T20:01:27;1.60;99.90
15341;DHT22;7770;52.158;5.372;2022-12-11T20:04:16;1.60;99.90